createdAt,value
2023-03-13T00:02:01.103Z,47.13
2023-03-13T00:04:49.885Z,47.47
2023-03-13T00:07:38.655Z,47.43
2023-03-13T00:10:28.814Z,47.04
2023-03-13T00:13:17.579Z,47.45
2023-03-13T00:16:08.345Z,47.35
2023-03-13T00:18:58.253Z,47.36
2023-03-13T00:21:46.887Z,47.25
2023-03-13T00:24:35.522Z,47.23
2023-03-13T00:27:25.846Z,47.33
2023-03-13T00:30:15.057Z,46.88
2023-03-13T00:33:03.732Z,47.46
2023-03-13T00:35:52.390Z,47.17
2023-03-13T00:38:41.327Z,47.17
2023-03-13T00:41:31.361Z,47.19
2023-03-13T00:44:21.386Z,47.49
2023-03-13T00:47:10.079Z,47.07
2023-03-13T00:49:58.910Z,47.15
2023-03-13T00:52:47.552Z,47.23
2023-03-13T00:55:38.434Z,47.49
2023-03-13T00:58:28.250Z,47.38
2023-03-13T01:01:19.818Z,47.23
2023-03-13T01:04:10.166Z,47.07
2023-03-13T01:06:58.831Z,47.28
2023-03-13T01:09:47.476Z,47.13
2023-03-13T01:12:36.222Z,47.74
2023-03-13T01:15:25.117Z,47.52
2023-03-13T01:18:15.559Z,47.26
2023-03-13T01:21:04.309Z,47.41
2023-03-13T01:23:54.080Z,47.16
2023-03-13T01:26:42.750Z,47.01
2023-03-13T01:29:31.428Z,47.28
2023-03-13T01:32:20.080Z,47.45
2023-03-13T01:35:10.777Z,47.21
2023-03-13T01:37:59.552Z,47.26
2023-03-13T01:40:49.939Z,47.47
2023-03-13T01:43:39.502Z,47.37
2023-03-13T01:46:28.633Z,47.69
2023-03-13T01:49:19.360Z,47.61
2023-03-13T01:52:11.418Z,47.44
2023-03-13T01:55:02.714Z,47.55
2023-03-13T01:57:53.634Z,47.69
2023-03-13T02:00:43.059Z,47.66
2023-03-13T02:03:31.740Z,47.58
2023-03-13T02:06:20.599Z,47.20
2023-03-13T02:09:14.313Z,47.31
2023-03-13T02:12:06.529Z,47.62
2023-03-13T02:14:55.953Z,47.69
2023-03-13T02:17:44.961Z,47.34
2023-03-13T02:20:33.614Z,47.31
2023-03-13T02:23:26.733Z,47.44
2023-03-13T02:26:17.546Z,47.62
2023-03-13T02:29:06.542Z,47.64
2023-03-13T02:31:55.565Z,47.39
2023-03-13T02:34:45.323Z,47.48
2023-03-13T02:37:34.869Z,47.42
2023-03-13T02:40:25.413Z,47.19
2023-03-13T02:43:17.875Z,47.54
2023-03-13T02:46:09.151Z,47.73
2023-03-13T02:48:59.188Z,47.62
2023-03-13T02:51:47.901Z,47.46
2023-03-13T02:54:40.098Z,47.99
2023-03-13T02:57:29.302Z,47.64
2023-03-13T03:00:20.804Z,47.87
2023-03-13T03:03:09.504Z,47.46
2023-03-13T03:05:58.110Z,47.29
2023-03-13T03:08:46.999Z,47.33
2023-03-13T03:11:35.678Z,47.31
2023-03-13T03:14:24.371Z,47.20
2023-03-13T03:17:14.405Z,47.50
2023-03-13T03:20:03.672Z,47.35
2023-03-13T03:22:52.335Z,47.67
2023-03-13T03:25:41.328Z,47.19
2023-03-13T03:28:30.326Z,47.21
2023-03-13T03:31:19.401Z,47.43
2023-03-13T03:34:09.501Z,47.45
2023-03-13T03:36:58.170Z,47.33
2023-03-13T03:39:46.850Z,47.33
2023-03-13T03:42:35.713Z,47.44
2023-03-13T03:45:24.377Z,47.93
2023-03-13T03:48:13.090Z,47.75
2023-03-13T03:51:03.364Z,47.61
2023-03-13T03:53:52.040Z,47.52
2023-03-13T03:56:40.885Z,47.53
2023-03-13T03:59:29.556Z,47.62
2023-03-13T04:02:18.538Z,47.29
2023-03-13T04:05:07.792Z,47.52
2023-03-13T04:07:57.747Z,47.87
2023-03-13T04:10:46.431Z,47.62
2023-03-13T04:13:35.175Z,47.60
2023-03-13T04:16:24.253Z,47.79
2023-03-13T04:19:13.117Z,47.59
2023-03-13T04:22:01.798Z,47.70
2023-03-13T04:24:51.848Z,47.76
2023-03-13T04:27:40.562Z,47.75
2023-03-13T04:30:29.847Z,47.90
2023-03-13T04:33:18.587Z,48.06
2023-03-13T04:36:08.124Z,48.26
2023-03-13T04:38:56.758Z,47.80
2023-03-13T04:41:46.729Z,47.81
2023-03-13T04:44:35.403Z,47.92
2023-03-13T04:47:24.094Z,47.83
2023-03-13T04:50:12.957Z,47.71
2023-03-13T04:53:01.674Z,47.46
2023-03-13T04:55:51.729Z,47.70
2023-03-13T04:58:44.548Z,48.03
2023-03-13T05:01:34.757Z,48.17
2023-03-13T05:04:23.380Z,47.82
2023-03-13T05:07:12.081Z,47.79
2023-03-13T05:10:00.671Z,47.87
2023-03-13T05:12:49.377Z,48.05
2023-03-13T05:15:39.529Z,47.73
2023-03-13T05:18:28.310Z,47.39
2023-03-13T05:21:17.069Z,47.74
2023-03-13T05:24:06.197Z,47.54
2023-03-13T05:26:54.908Z,47.66
2023-03-13T05:29:43.558Z,47.90
2023-03-13T05:32:33.705Z,48.10
2023-03-13T05:35:22.512Z,47.71
2023-03-13T05:38:11.334Z,48.10
2023-03-13T05:40:59.993Z,47.59
2023-03-13T05:43:48.599Z,47.30
2023-03-13T05:46:37.332Z,47.03
2023-03-13T05:49:27.403Z,47.07
2023-03-13T05:52:16.155Z,46.91
2023-03-13T05:55:04.913Z,46.36
2023-03-13T05:57:53.809Z,45.61
2023-03-13T06:00:43.818Z,45.53
2023-03-13T06:03:32.754Z,45.87
2023-03-13T06:06:23.161Z,45.98
2023-03-13T06:09:12.086Z,46.34
2023-03-13T06:12:00.856Z,47.19
2023-03-13T06:14:49.724Z,46.88
2023-03-13T06:17:38.636Z,46.62
2023-03-13T06:20:27.646Z,46.35
2023-03-13T06:23:17.731Z,46.42
2023-03-13T06:26:06.782Z,46.27
2023-03-13T06:28:55.501Z,45.98
2023-03-13T06:31:44.425Z,46.36
2023-03-13T06:34:33.149Z,46.72
2023-03-13T06:37:21.867Z,47.37
2023-03-13T06:40:13.602Z,47.59
2023-03-13T06:43:02.611Z,47.91
2023-03-13T06:45:51.412Z,47.62
2023-03-13T06:48:40.138Z,47.79
2023-03-13T06:51:28.750Z,48.25
2023-03-13T06:54:17.387Z,48.12
2023-03-13T06:57:07.458Z,47.76
2023-03-13T06:59:56.086Z,48.11
2023-03-13T07:02:44.780Z,48.39
2023-03-13T07:05:34.678Z,48.15
2023-03-13T07:08:25.568Z,48.17
2023-03-13T07:11:15.636Z,48.12
2023-03-13T07:14:16.475Z,47.98
2023-03-13T07:17:05.846Z,48.02
2023-03-13T07:19:54.693Z,48.39
2023-03-13T07:22:43.617Z,47.85
2023-03-13T07:25:32.337Z,47.90
2023-03-13T07:28:21.089Z,48.05
2023-03-13T07:31:14.549Z,47.74
2023-03-13T07:34:03.441Z,47.87
2023-03-13T07:36:52.172Z,48.08
2023-03-13T07:39:40.978Z,48.09
2023-03-13T07:42:29.641Z,47.91
2023-03-13T07:45:18.333Z,47.90
2023-03-13T07:48:08.672Z,47.60
2023-03-13T07:50:58.420Z,47.67
2023-03-13T07:53:48.477Z,47.56
2023-03-13T07:56:37.308Z,47.23
2023-03-13T07:59:26.146Z,47.66
2023-03-13T08:02:16.972Z,47.37
2023-03-13T08:05:07.783Z,47.40
2023-03-13T08:07:56.502Z,47.09
2023-03-13T08:10:45.228Z,47.29
2023-03-13T08:13:35.355Z,47.05
2023-03-13T08:16:25.489Z,47.20
2023-03-13T08:19:14.139Z,47.35
2023-03-13T08:22:04.381Z,47.38
2023-03-13T08:24:53.143Z,46.93
2023-03-13T08:27:42.050Z,47.06
2023-03-13T08:30:30.740Z,46.85
2023-03-13T08:33:19.487Z,47.21
2023-03-13T08:36:13.619Z,47.01
2023-03-13T08:39:06.976Z,47.03
2023-03-13T08:41:55.805Z,46.91
2023-03-13T08:44:44.514Z,46.69
2023-03-13T08:47:33.200Z,46.89
2023-03-13T08:50:22.162Z,47.28
2023-03-13T08:53:11.137Z,47.18
2023-03-13T08:56:01.515Z,47.95
2023-03-13T08:58:51.694Z,47.56
2023-03-13T09:01:40.360Z,47.84
2023-03-13T09:04:29.948Z,47.94
2023-03-13T09:07:18.587Z,47.72
2023-03-13T09:10:15.616Z,47.84
2023-03-13T09:13:14.769Z,47.58
2023-03-13T09:16:21.615Z,47.28
2023-03-13T09:19:14.964Z,47.79
2023-03-13T09:22:10.062Z,47.15
2023-03-13T09:24:58.762Z,47.42
2023-03-13T09:27:47.433Z,47.47
2023-03-13T09:30:37.641Z,46.97
2023-03-13T09:33:26.336Z,47.31
2023-03-13T09:36:15.398Z,47.44
2023-03-13T09:39:05.105Z,47.59
2023-03-13T09:41:57.700Z,47.77
2023-03-13T09:44:48.839Z,47.88
2023-03-13T09:47:43.957Z,47.92
2023-03-13T09:50:35.988Z,48.16
2023-03-13T09:53:31.881Z,47.58
2023-03-13T09:56:24.575Z,47.90
2023-03-13T09:59:19.329Z,47.86
2023-03-13T10:02:21.187Z,47.95
2023-03-13T10:05:16.045Z,47.82
2023-03-13T10:08:14.771Z,47.80
2023-03-13T10:11:09.884Z,47.75
2023-03-13T10:14:03.252Z,47.75
2023-03-13T10:16:57.054Z,47.53
2023-03-13T10:19:47.412Z,47.61
2023-03-13T10:22:38.372Z,47.59
2023-03-13T10:25:35.698Z,47.21
2023-03-13T10:28:24.726Z,47.31
2023-03-13T10:31:18.422Z,46.98
2023-03-13T10:34:14.273Z,47.33
2023-03-13T10:37:04.353Z,47.18
2023-03-13T10:39:55.382Z,47.19
2023-03-13T10:42:46.880Z,46.74
2023-03-13T10:45:38.123Z,46.91
2023-03-13T10:48:28.650Z,46.66
2023-03-13T10:51:27.809Z,47.00
2023-03-13T10:54:17.698Z,46.57
2023-03-13T10:57:31.495Z,46.27
2023-03-13T11:00:42.508Z,46.41
2023-03-13T11:03:34.520Z,46.05
2023-03-13T11:06:38.271Z,46.44
2023-03-13T11:09:30.824Z,46.27
2023-03-13T11:12:22.772Z,45.98
2023-03-13T11:15:17.618Z,45.91
2023-03-13T11:18:09.512Z,46.05
2023-03-13T11:21:08.739Z,46.01
2023-03-13T11:24:08.573Z,46.26
2023-03-13T11:27:05.166Z,45.58
2023-03-13T11:30:03.821Z,45.64
2023-03-13T11:32:55.758Z,45.48
2023-03-13T11:35:53.534Z,45.89
2023-03-13T11:38:44.726Z,45.90
2023-03-13T11:41:49.197Z,45.27
2023-03-13T11:44:47.822Z,45.54
2023-03-13T11:47:50.318Z,45.44
2023-03-13T11:50:57.780Z,45.55
2023-03-13T11:54:13.363Z,45.51
2023-03-13T11:57:12.245Z,45.69
2023-03-13T12:00:16.980Z,45.81
2023-03-13T12:03:15.116Z,45.23
2023-03-13T12:06:13.150Z,45.39
2023-03-13T12:09:14.088Z,45.11
2023-03-13T12:12:05.911Z,44.77
2023-03-13T12:15:11.084Z,45.16
2023-03-13T12:18:03.184Z,45.03
2023-03-13T12:20:59.299Z,45.09
2023-03-13T12:23:54.348Z,44.84
2023-03-13T12:26:45.879Z,44.83
2023-03-13T12:29:43.844Z,44.85
2023-03-13T12:32:43.264Z,44.92
2023-03-13T12:35:40.386Z,44.84
2023-03-13T12:38:38.013Z,44.91
2023-03-13T12:41:30.430Z,45.05
2023-03-13T12:44:22.249Z,44.81
2023-03-13T12:47:27.960Z,44.90
2023-03-13T12:50:38.259Z,44.69
2023-03-13T12:53:47.973Z,44.86
2023-03-13T12:56:54.507Z,44.67
2023-03-13T12:59:52.046Z,44.83
2023-03-13T13:02:56.657Z,44.60
2023-03-13T13:06:01.591Z,44.70
2023-03-13T13:09:08.671Z,44.50
2023-03-13T13:11:59.903Z,44.65
2023-03-13T13:15:02.328Z,44.83
2023-03-13T13:18:02.390Z,44.57
2023-03-13T13:20:52.010Z,45.20
2023-03-13T13:23:44.001Z,44.83
2023-03-13T13:26:50.483Z,45.10
2023-03-13T13:30:01.357Z,45.13
2023-03-13T13:32:54.170Z,44.80
2023-03-13T13:35:43.447Z,45.46
2023-03-13T13:38:37.878Z,45.66
2023-03-13T13:41:38.196Z,45.10
2023-03-13T13:44:30.493Z,44.56
2023-03-13T13:47:26.748Z,44.66
2023-03-13T13:50:19.855Z,44.96
2023-03-13T13:53:33.410Z,45.08
2023-03-13T13:56:43.487Z,45.13
2023-03-13T13:59:43.211Z,45.21
2023-03-13T14:02:34.638Z,44.69
2023-03-13T14:05:26.974Z,44.65
2023-03-13T14:08:19.983Z,44.59
2023-03-13T14:11:23.031Z,44.75
2023-03-13T14:14:13.442Z,45.86
2023-03-13T14:17:03.941Z,46.03
2023-03-13T14:19:52.717Z,45.98
2023-03-13T14:22:48.814Z,46.09
2023-03-13T14:25:53.426Z,45.84
2023-03-13T14:28:44.062Z,45.96
2023-03-13T14:31:35.202Z,44.81
2023-03-13T14:34:26.584Z,44.90
2023-03-13T14:37:35.637Z,44.86
2023-03-13T14:40:29.627Z,44.71
2023-03-13T14:43:33.970Z,44.58
2023-03-13T14:46:29.710Z,44.72
2023-03-13T14:49:26.691Z,44.46
2023-03-13T14:52:22.390Z,43.94
2023-03-13T14:55:29.806Z,44.42
2023-03-13T14:58:30.683Z,44.29
2023-03-13T15:01:30.689Z,44.19
2023-03-13T15:05:00.044Z,44.79
2023-03-13T15:07:55.186Z,44.90
2023-03-13T15:10:45.117Z,44.51
2023-03-13T15:13:38.423Z,44.17
2023-03-13T15:16:28.752Z,44.07
2023-03-13T15:19:17.465Z,44.30
2023-03-13T15:22:06.185Z,44.37
2023-03-13T15:25:06.111Z,44.40
2023-03-13T15:27:55.959Z,44.10
2023-03-13T15:30:45.266Z,44.21
2023-03-13T15:33:34.912Z,43.87
2023-03-13T15:36:24.154Z,43.75
2023-03-13T15:39:19.577Z,44.03
2023-03-13T15:42:11.783Z,44.05
2023-03-13T15:45:02.406Z,43.85
2023-03-13T15:47:52.430Z,44.32
2023-03-13T15:50:42.096Z,44.88
2023-03-13T15:53:33.077Z,45.12
2023-03-13T15:56:24.375Z,45.33
2023-03-13T15:59:15.820Z,45.69
2023-03-13T16:02:15.506Z,45.81
2023-03-13T16:05:04.596Z,45.58
2023-03-13T16:07:53.280Z,46.22
2023-03-13T16:10:42.612Z,45.74
2023-03-13T16:13:31.521Z,45.77
2023-03-13T16:16:23.595Z,45.57
2023-03-13T16:19:12.743Z,45.78
2023-03-13T16:22:01.859Z,45.49
2023-03-13T16:24:50.543Z,46.04
2023-03-13T16:27:39.713Z,45.61
2023-03-13T16:30:30.146Z,45.77
2023-03-13T16:33:20.283Z,45.46
2023-03-13T16:36:15.589Z,45.70
2023-03-13T16:39:09.099Z,45.80
2023-03-13T16:41:57.758Z,45.88
2023-03-13T16:44:46.556Z,45.86
2023-03-13T16:47:35.935Z,46.40
2023-03-13T16:50:28.276Z,46.37
2023-03-13T16:53:16.908Z,46.04
2023-03-13T16:56:06.075Z,46.04
2023-03-13T16:58:55.083Z,46.19
2023-03-13T17:01:44.204Z,46.28
2023-03-13T17:04:33.066Z,45.83
2023-03-13T17:07:24.601Z,45.45
2023-03-13T17:10:18.569Z,45.28
2023-03-13T17:13:07.488Z,45.51
2023-03-13T17:15:56.382Z,44.98
2023-03-13T17:18:46.900Z,45.20
2023-03-13T17:21:38.958Z,45.70
2023-03-13T17:24:36.384Z,45.18
2023-03-13T17:27:27.614Z,45.02
2023-03-13T17:30:41.237Z,46.11
2023-03-13T17:33:32.020Z,46.60
2023-03-13T17:36:24.581Z,47.17
2023-03-13T17:39:16.099Z,46.70
2023-03-13T17:42:07.870Z,46.65
2023-03-13T17:44:56.551Z,46.70
2023-03-13T17:47:49.252Z,46.60
2023-03-13T17:50:39.420Z,46.40
2023-03-13T17:53:30.358Z,46.07
2023-03-13T17:56:22.460Z,46.10
2023-03-13T17:59:15.927Z,46.16
2023-03-13T18:02:06.539Z,46.48
2023-03-13T18:04:56.190Z,46.19
2023-03-13T18:07:45.118Z,46.59
2023-03-13T18:10:33.870Z,46.70
2023-03-13T18:13:22.598Z,46.73
2023-03-13T18:16:23.204Z,47.02
2023-03-13T18:19:16.147Z,46.89
2023-03-13T18:22:05.054Z,46.37
2023-03-13T18:24:53.899Z,46.60
2023-03-13T18:27:42.710Z,46.87
2023-03-13T18:30:31.397Z,46.31
2023-03-13T18:33:21.613Z,46.55
2023-03-13T18:36:17.574Z,46.05
2023-03-13T18:39:07.450Z,45.97
2023-03-13T18:41:56.097Z,46.19
2023-03-13T18:44:45.078Z,46.05
2023-03-13T18:47:34.200Z,45.91
2023-03-13T18:50:26.747Z,46.78
2023-03-13T18:53:15.518Z,46.29
2023-03-13T18:56:08.527Z,46.83
2023-03-13T18:58:57.537Z,46.44
2023-03-13T19:01:47.287Z,46.83
2023-03-13T19:04:35.952Z,46.68
2023-03-13T19:07:27.589Z,46.62
2023-03-13T19:10:24.146Z,46.48
2023-03-13T19:13:12.979Z,46.51
2023-03-13T19:16:01.689Z,46.37
2023-03-13T19:18:51.737Z,46.29
2023-03-13T19:21:41.363Z,46.59
2023-03-13T19:24:31.378Z,46.68
2023-03-13T19:27:20.431Z,46.63
2023-03-13T19:30:17.830Z,46.95
2023-03-13T19:33:06.539Z,46.26
2023-03-13T19:35:55.634Z,45.66
2023-03-13T19:38:45.123Z,45.65
2023-03-13T19:41:36.091Z,45.81
2023-03-13T19:44:24.845Z,45.75
2023-03-13T19:47:15.863Z,45.72
2023-03-13T19:50:04.755Z,45.54
2023-03-13T19:52:55.856Z,45.77
2023-03-13T19:55:44.744Z,45.84
2023-03-13T19:58:36.945Z,45.97
2023-03-13T20:01:26.124Z,45.67
2023-03-13T20:04:15.470Z,45.89
2023-03-13T20:07:04.794Z,45.72
2023-03-13T20:09:53.544Z,45.73
2023-03-13T20:12:42.228Z,45.63
2023-03-13T20:15:32.541Z,46.05
2023-03-13T20:18:22.572Z,45.94
2023-03-13T20:21:12.383Z,45.76
2023-03-13T20:24:01.904Z,45.93
2023-03-13T20:26:52.710Z,45.96
2023-03-13T20:29:41.931Z,45.84
2023-03-13T20:32:32.688Z,45.95
2023-03-13T20:35:21.386Z,45.84
2023-03-13T20:38:10.101Z,45.32
2023-03-13T20:41:00.854Z,45.57
2023-03-13T20:44:13.006Z,45.45
2023-03-13T20:47:09.752Z,45.71
2023-03-13T20:49:59.923Z,45.35
2023-03-13T20:52:49.751Z,45.77
2023-03-13T20:55:39.011Z,45.94
2023-03-13T20:58:27.767Z,46.55
2023-03-13T21:01:18.408Z,46.77
2023-03-13T21:04:08.329Z,47.08
2023-03-13T21:07:04.518Z,47.51
2023-03-13T21:09:53.897Z,47.39
2023-03-13T21:12:42.852Z,47.69
2023-03-13T21:15:31.559Z,47.45
2023-03-13T21:18:20.309Z,46.58
2023-03-13T21:21:14.867Z,46.63
2023-03-13T21:24:05.325Z,46.42
2023-03-13T21:26:55.205Z,46.04
2023-03-13T21:29:47.300Z,46.12
2023-03-13T21:32:38.185Z,46.23
2023-03-13T21:35:26.897Z,45.62
2023-03-13T21:38:15.722Z,46.06
2023-03-13T21:41:10.368Z,45.91
2023-03-13T21:43:59.598Z,46.39
2023-03-13T21:46:48.971Z,46.67
2023-03-13T21:49:37.853Z,46.60
2023-03-13T21:52:26.648Z,46.64
2023-03-13T21:55:15.442Z,46.48
2023-03-13T21:58:05.526Z,46.34
2023-03-13T22:00:56.087Z,46.54
2023-03-13T22:03:45.013Z,47.65
2023-03-13T22:06:35.013Z,47.42
2023-03-13T22:09:25.506Z,47.65
2023-03-13T22:12:14.430Z,47.28
2023-03-13T22:15:04.755Z,47.50
2023-03-13T22:17:53.458Z,47.84
2023-03-13T22:20:42.313Z,47.86
2023-03-13T22:23:31.547Z,47.72
2023-03-13T22:26:20.490Z,47.37
2023-03-13T22:29:09.456Z,47.60
2023-03-13T22:32:00.370Z,47.59
2023-03-13T22:34:49.428Z,47.21
2023-03-13T22:37:38.422Z,47.34
2023-03-13T22:40:27.129Z,47.24
2023-03-13T22:43:16.324Z,47.54
2023-03-13T22:46:10.226Z,47.34
2023-03-13T22:49:00.490Z,47.81
2023-03-13T22:51:49.348Z,47.93
2023-03-13T22:54:38.124Z,47.54
2023-03-13T22:57:29.221Z,47.98
2023-03-13T23:00:18.606Z,47.44
2023-03-13T23:03:07.257Z,47.61
2023-03-13T23:05:59.966Z,47.77
2023-03-13T23:08:49.785Z,47.70
2023-03-13T23:11:38.643Z,47.71
2023-03-13T23:14:30.348Z,48.11
2023-03-13T23:17:20.000Z,48.15
2023-03-13T23:20:13.223Z,48.46
2023-03-13T23:23:03.383Z,48.70
2023-03-13T23:25:52.074Z,48.47
2023-03-13T23:28:41.752Z,48.51
2023-03-13T23:31:30.617Z,48.76
2023-03-13T23:34:22.121Z,48.97
2023-03-13T23:37:11.238Z,48.76
2023-03-13T23:40:01.413Z,48.73
2023-03-13T23:42:51.757Z,48.59
2023-03-13T23:45:40.389Z,49.00
2023-03-13T23:48:29.246Z,48.99
2023-03-13T23:51:18.122Z,48.97
2023-03-13T23:54:07.468Z,48.77
2023-03-13T23:56:57.778Z,48.85
2023-03-13T23:59:46.599Z,48.68
